Time;durP1;ratioP1;P1;durP2;ratioP2;P2;SDS_P1;SDS_P2;PMS_P1;PMS_P2;Temp;Humidity;BMP_temperature;BMP_pressure;BME280_temperature;BME280_humidity;BME280_pressure;Samples;Min_cycle;Max_cycle;Signal;HPM_P1;HPM_P2
2023/01/17 00:00:22;;;;;;;2.40;1.10;;;;;;;;;;5064291;28;20388;-83
2023/01/17 00:02:48;;;;;;;2.38;1.00;;;;;;;;;;5077466;28;20383;-82
2023/01/17 00:10:43;;;;;;;1.92;1.00;;;;;;;;;;5066002;28;20402;-84
2023/01/17 00:13:09;;;;;;;1.83;1.10;;;;;;;;;;5078273;28;20419;-84
2023/01/17 00:15:38;;;;;;;2.95;1.33;;;;;;;;;;5070909;28;20416;-84
2023/01/17 00:18:04;;;;;;;1.60;0.88;;;;;;;;;;5062946;28;20387;-83
2023/01/17 00:26:03;;;;;;;1.48;0.90;;;;;;;;;;5070036;28;20773;-82
2023/01/17 01:35:25;;;;;;;1.25;0.73;;;;;;;;;;5062137;28;20970;-82
2023/01/17 01:37:51;;;;;;;1.08;0.88;;;;;;;;;;5065172;28;20875;-83
2023/01/17 01:40:17;;;;;;;1.30;0.85;;;;;;;;;;5065987;28;20476;-82
2023/01/17 01:42:49;;;;;;;2.10;1.00;;;;;;;;;;5053768;28;20381;-83
2023/01/17 01:45:16;;;;;;;1.70;0.80;;;;;;;;;;5064094;28;20522;-82
2023/01/17 01:47:43;;;;;;;1.90;1.00;;;;;;;;;;5063696;28;20422;-83
2023/01/17 01:50:11;;;;;;;1.60;1.10;;;;;;;;;;5053399;28;20420;-83
2023/01/17 01:52:38;;;;;;;3.03;1.20;;;;;;;;;;5052693;28;20894;-83
2023/01/17 01:55:12;;;;;;;2.00;1.00;;;;;;;;;;5061341;28;20433;-83
2023/01/17 01:57:40;;;;;;;1.10;0.70;;;;;;;;;;5067805;28;20428;-83
2023/01/17 02:00:15;;;;;;;1.10;0.80;;;;;;;;;;5070383;28;20405;-82
2023/01/17 02:02:42;;;;;;;1.07;0.50;;;;;;;;;;5069495;28;20395;-83
2023/01/17 02:05:09;;;;;;;1.30;0.60;;;;;;;;;;5046684;28;20971;-83
2023/01/17 02:07:38;;;;;;;1.20;0.70;;;;;;;;;;5060059;28;20380;-83
2023/01/17 02:10:04;;;;;;;2.38;1.13;;;;;;;;;;5071734;28;20403;-83
2023/01/17 02:12:30;;;;;;;1.70;1.07;;;;;;;;;;5066707;28;20454;-82
2023/01/17 02:14:56;;;;;;;2.38;1.40;;;;;;;;;;5068928;28;20462;-82
2023/01/17 02:17:58;;;;;;;1.70;1.00;;;;;;;;;;5063118;28;20388;-83
2023/01/17 02:20:49;;;;;;;1.73;1.00;;;;;;;;;;5021508;28;20452;-82
2023/01/17 02:23:27;;;;;;;1.23;0.80;;;;;;;;;;5063836;28;20429;-82
2023/01/17 02:26:09;;;;;;;1.67;1.08;;;;;;;;;;5074797;28;20533;-83
2023/01/17 02:28:51;;;;;;;1.60;0.90;;;;;;;;;;5063649;28;20394;-83
2023/01/17 02:31:55;;;;;;;2.10;0.90;;;;;;;;;;5063973;28;20432;-83
2023/01/17 02:34:41;;;;;;;1.13;0.73;;;;;;;;;;5032547;28;21039;-82
2023/01/17 02:37:13;;;;;;;1.23;0.90;;;;;;;;;;5031844;28;20490;-83
2023/01/17 02:39:42;;;;;;;1.10;0.90;;;;;;;;;;5032169;28;20455;-82
2023/01/17 02:42:12;;;;;;;2.45;1.00;;;;;;;;;;5032477;28;20391;-82
2023/01/17 02:44:41;;;;;;;1.17;0.90;;;;;;;;;;5031223;28;20466;-83
2023/01/17 02:47:27;;;;;;;1.70;0.80;;;;;;;;;;5015765;28;20929;-82
2023/01/17 02:49:54;;;;;;;1.85;0.80;;;;;;;;;;5032316;28;20462;-83
2023/01/17 02:52:35;;;;;;;1.48;0.70;;;;;;;;;;5031870;28;20390;-83
2023/01/17 02:55:19;;;;;;;1.85;0.80;;;;;;;;;;5043888;28;20474;-82
2023/01/17 02:58:03;;;;;;;1.00;0.80;;;;;;;;;;5031975;28;20428;-82
2023/01/17 03:00:32;;;;;;;1.58;0.90;;;;;;;;;;5031814;28;20393;-84
2023/01/17 03:02:58;;;;;;;1.05;0.90;;;;;;;;;;5032135;28;20391;-85
2023/01/17 03:05:32;;;;;;;1.15;0.80;;;;;;;;;;5049517;28;20415;-85
2023/01/17 03:07:58;;;;;;;1.52;0.70;;;;;;;;;;5067293;28;20458;-85
2023/01/17 03:10:24;;;;;;;1.17;0.90;;;;;;;;;;5058383;28;20393;-82
2023/01/17 03:12:55;;;;;;;0.95;0.70;;;;;;;;;;5067416;28;20415;-85
2023/01/17 03:15:21;;;;;;;2.38;0.85;;;;;;;;;;5061489;28;20480;-84
2023/01/17 03:17:49;;;;;;;0.70;0.68;;;;;;;;;;5065569;28;20388;-85
2023/01/17 03:20:15;;;;;;;1.13;0.70;;;;;;;;;;5084515;28;20920;-84
2023/01/17 03:22:41;;;;;;;1.27;0.80;;;;;;;;;;5080857;28;20416;-84
2023/01/17 03:25:07;;;;;;;2.90;1.43;;;;;;;;;;5080544;28;20837;-83
2023/01/17 03:27:33;;;;;;;1.90;1.40;;;;;;;;;;5075194;28;20400;-85
2023/01/17 03:30:00;;;;;;;1.83;1.00;;;;;;;;;;5057031;28;20871;-82
2023/01/17 03:32:26;;;;;;;2.60;1.17;;;;;;;;;;5054177;28;20785;-84
2023/01/17 03:34:52;;;;;;;1.20;0.90;;;;;;;;;;5056518;28;20382;-85
2023/01/17 03:37:18;;;;;;;1.80;1.30;;;;;;;;;;5062462;28;20380;-85
2023/01/17 03:39:44;;;;;;;1.80;1.50;;;;;;;;;;5066292;28;20425;-84
2023/01/17 03:42:10;;;;;;;1.73;1.30;;;;;;;;;;5059994;28;20383;-85
2023/01/17 03:44:36;;;;;;;1.50;1.00;;;;;;;;;;5057852;28;20437;-84
2023/01/17 03:47:02;;;;;;;1.30;0.98;;;;;;;;;;5056151;28;20369;-85
2023/01/17 03:49:28;;;;;;;1.20;1.10;;;;;;;;;;5061364;28;20955;-83
2023/01/17 03:51:54;;;;;;;1.85;1.13;;;;;;;;;;5062619;28;20382;-82
2023/01/17 03:54:20;;;;;;;1.80;0.80;;;;;;;;;;5067177;28;20383;-85
2023/01/17 03:56:46;;;;;;;1.50;0.93;;;;;;;;;;5065556;28;20393;-84
2023/01/17 03:59:12;;;;;;;1.42;1.00;;;;;;;;;;5071571;28;20917;-85
2023/01/17 04:01:38;;;;;;;1.70;0.90;;;;;;;;;;5072382;28;20380;-85
2023/01/17 04:04:04;;;;;;;1.95;0.90;;;;;;;;;;5072688;28;20430;-84
2023/01/17 04:06:30;;;;;;;0.65;0.65;;;;;;;;;;5069638;28;20390;-82
2023/01/17 04:08:56;;;;;;;0.80;0.70;;;;;;;;;;5057536;28;20392;-84
2023/01/17 04:11:22;;;;;;;1.37;0.80;;;;;;;;;;5058842;28;20407;-82
2023/01/17 04:13:48;;;;;;;0.85;0.80;;;;;;;;;;5061539;28;20378;-82
2023/01/17 04:16:16;;;;;;;0.95;0.68;;;;;;;;;;5049359;28;20727;-84
2023/01/17 04:18:41;;;;;;;1.27;0.70;;;;;;;;;;5040221;28;20550;-85
2023/01/17 04:21:07;;;;;;;1.08;0.80;;;;;;;;;;5072740;28;20784;-84
2023/01/17 04:23:34;;;;;;;0.80;0.60;;;;;;;;;;5083307;28;20374;-85
2023/01/17 04:26:00;;;;;;;0.80;0.80;;;;;;;;;;5075808;28;20405;-84
2023/01/17 04:28:26;;;;;;;0.80;0.75;;;;;;;;;;5074762;28;20814;-84
2023/01/17 04:30:52;;;;;;;1.05;0.90;;;;;;;;;;5060336;28;20381;-84
2023/01/17 04:33:18;;;;;;;0.82;0.80;;;;;;;;;;5068687;28;20384;-85
2023/01/17 04:35:44;;;;;;;0.82;0.65;;;;;;;;;;5063317;28;20394;-83
2023/01/17 04:38:10;;;;;;;0.77;0.70;;;;;;;;;;5040097;28;20902;-83
2023/01/17 04:40:36;;;;;;;1.33;0.70;;;;;;;;;;5054549;28;20473;-84
2023/01/17 04:43:02;;;;;;;1.05;0.63;;;;;;;;;;5035052;28;20794;-83
2023/01/17 04:45:28;;;;;;;3.57;1.20;;;;;;;;;;5057067;28;20407;-84
2023/01/17 04:47:54;;;;;;;1.30;0.90;;;;;;;;;;5052587;28;20435;-84
2023/01/17 04:50:20;;;;;;;1.30;0.85;;;;;;;;;;5052793;28;20385;-82
2023/01/17 04:52:46;;;;;;;1.42;0.90;;;;;;;;;;5059871;28;20378;-84
2023/01/17 04:55:12;;;;;;;2.20;2.00;;;;;;;;;;5052197;28;20377;-83
2023/01/17 04:57:38;;;;;;;2.83;2.38;;;;;;;;;;5058797;28;20384;-84
2023/01/17 05:00:04;;;;;;;1.70;1.60;;;;;;;;;;5055565;28;20751;-84
2023/01/17 05:02:30;;;;;;;1.50;1.27;;;;;;;;;;5058634;28;20391;-85
2023/01/17 05:04:56;;;;;;;2.15;1.50;;;;;;;;;;5033187;28;20408;-84
2023/01/17 05:07:22;;;;;;;3.33;2.70;;;;;;;;;;5054043;28;20755;-84
2023/01/17 05:09:48;;;;;;;1.90;1.60;;;;;;;;;;5050102;28;20406;-84
2023/01/17 05:12:17;;;;;;;1.30;0.90;;;;;;;;;;5054155;28;20466;-87
2023/01/17 05:14:50;;;;;;;1.40;1.30;;;;;;;;;;5050856;28;20385;-85
2023/01/17 05:17:22;;;;;;;1.50;1.27;;;;;;;;;;5034221;28;20448;-84
2023/01/17 05:19:48;;;;;;;1.17;1.00;;;;;;;;;;5046265;28;20388;-83
2023/01/17 05:22:14;;;;;;;1.70;1.00;;;;;;;;;;5058147;28;20398;-83
2023/01/17 05:24:44;;;;;;;1.58;1.13;;;;;;;;;;5069977;28;20450;-83
2023/01/17 05:27:11;;;;;;;1.52;0.80;;;;;;;;;;5075226;28;20461;-83
2023/01/17 05:29:37;;;;;;;1.33;0.90;;;;;;;;;;5074784;28;20460;-83
2023/01/17 05:32:03;;;;;;;1.88;1.00;;;;;;;;;;5067861;28;20921;-83
2023/01/17 05:34:29;;;;;;;1.48;1.00;;;;;;;;;;5060689;28;20393;-83
2023/01/17 05:36:55;;;;;;;1.52;0.80;;;;;;;;;;5068133;28;20383;-82
2023/01/17 05:39:21;;;;;;;1.40;0.75;;;;;;;;;;5070498;28;20914;-82
2023/01/17 05:41:47;;;;;;;2.13;0.93;;;;;;;;;;5071428;28;20387;-82
2023/01/17 05:44:16;;;;;;;1.98;0.85;;;;;;;;;;5071490;28;20785;-82
2023/01/17 05:46:42;;;;;;;1.47;0.87;;;;;;;;;;5071212;28;20423;-82
2023/01/17 05:49:08;;;;;;;2.17;0.85;;;;;;;;;;5070755;28;20371;-82
2023/01/17 05:51:36;;;;;;;1.70;0.77;;;;;;;;;;5071202;28;20895;-82
2023/01/17 05:54:03;;;;;;;1.30;0.98;;;;;;;;;;5070412;28;20375;-83
2023/01/17 05:56:29;;;;;;;1.63;1.10;;;;;;;;;;5071433;28;20466;-82
2023/01/17 05:58:55;;;;;;;1.40;1.00;;;;;;;;;;5074960;28;20801;-83
2023/01/17 06:01:21;;;;;;;1.95;1.10;;;;;;;;;;5057126;28;20430;-82
2023/01/17 06:03:47;;;;;;;1.63;1.03;;;;;;;;;;5075327;28;20883;-82
2023/01/17 06:06:13;;;;;;;1.13;0.90;;;;;;;;;;5065939;28;20411;-82
2023/01/17 06:08:39;;;;;;;2.05;1.10;;;;;;;;;;5075827;28;21038;-82
2023/01/17 06:11:05;;;;;;;1.48;1.08;;;;;;;;;;5076520;28;20406;-82
2023/01/17 06:13:31;;;;;;;2.35;1.17;;;;;;;;;;5075206;28;20426;-83
2023/01/17 06:16:01;;;;;;;1.63;1.00;;;;;;;;;;5075141;28;20383;-83
2023/01/17 06:18:27;;;;;;;2.17;1.10;;;;;;;;;;5074982;28;20424;-82
2023/01/17 06:20:54;;;;;;;1.52;1.00;;;;;;;;;;5074862;28;20376;-82
2023/01/17 06:23:20;;;;;;;1.60;1.20;;;;;;;;;;5074855;28;20379;-82
2023/01/17 06:25:47;;;;;;;1.65;1.27;;;;;;;;;;5074765;28;20480;-82
2023/01/17 06:28:13;;;;;;;1.85;1.40;;;;;;;;;;5074800;28;20379;-82
2023/01/17 06:30:39;;;;;;;1.45;1.20;;;;;;;;;;5074909;28;20382;-82
2023/01/17 06:33:06;;;;;;;1.63;1.52;;;;;;;;;;5086334;28;20386;-82
2023/01/17 06:35:32;;;;;;;2.58;1.80;;;;;;;;;;5082037;28;20386;-83
2023/01/17 06:37:59;;;;;;;2.80;2.10;;;;;;;;;;5080391;28;20389;-82
2023/01/17 06:40:25;;;;;;;2.53;1.60;;;;;;;;;;5086870;28;20386;-83
2023/01/17 06:42:51;;;;;;;2.77;1.70;;;;;;;;;;5092224;28;20803;-82
2023/01/17 06:45:18;;;;;;;2.35;2.00;;;;;;;;;;5082640;28;20437;-82
2023/01/17 06:47:44;;;;;;;2.40;1.90;;;;;;;;;;5086632;28;20467;-82
2023/01/17 06:50:12;;;;;;;2.40;2.00;;;;;;;;;;5073547;28;20459;-82
2023/01/17 06:52:38;;;;;;;2.40;2.10;;;;;;;;;;5074335;28;20460;-83
2023/01/17 06:55:04;;;;;;;2.93;2.30;;;;;;;;;;5056643;28;20399;-83
2023/01/17 06:57:30;;;;;;;4.25;3.58;;;;;;;;;;5074299;28;20387;-83
2023/01/17 06:59:56;;;;;;;3.58;3.10;;;;;;;;;;5059512;28;20385;-83
2023/01/17 07:02:22;;;;;;;3.90;3.60;;;;;;;;;;5057168;28;20386;-83
2023/01/17 07:04:51;;;;;;;3.88;3.50;;;;;;;;;;5058398;28;20424;-83
2023/01/17 07:07:17;;;;;;;6.25;5.65;;;;;;;;;;5068967;28;20372;-83
2023/01/17 07:09:43;;;;;;;17.30;14.90;;;;;;;;;;5073346;28;20387;-83
2023/01/17 07:12:09;;;;;;;11.38;10.32;;;;;;;;;;5074042;28;20412;-83
2023/01/17 07:14:35;;;;;;;4.50;4.10;;;;;;;;;;5073547;28;20502;-83
2023/01/17 07:17:04;;;;;;;4.63;3.67;;;;;;;;;;5073111;28;20900;-83
2023/01/17 07:19:30;;;;;;;4.78;3.80;;;;;;;;;;5073537;28;20857;-83
2023/01/17 07:21:56;;;;;;;6.22;3.90;;;;;;;;;;5073121;28;20458;-84
2023/01/17 07:24:22;;;;;;;4.20;3.90;;;;;;;;;;5073730;28;20411;-83
2023/01/17 07:26:48;;;;;;;3.67;3.30;;;;;;;;;;5073661;28;20787;-84
2023/01/17 07:29:14;;;;;;;3.97;3.30;;;;;;;;;;5073529;28;20376;-84
2023/01/17 07:31:40;;;;;;;3.67;3.33;;;;;;;;;;5055870;28;20454;-84
2023/01/17 07:34:06;;;;;;;3.70;3.30;;;;;;;;;;5073728;28;20414;-84
2023/01/17 07:36:33;;;;;;;5.57;3.20;;;;;;;;;;5073481;28;20379;-84
2023/01/17 07:38:58;;;;;;;4.07;3.17;;;;;;;;;;5070116;28;20371;-85
2023/01/17 07:41:25;;;;;;;4.20;3.35;;;;;;;;;;5072322;28;20749;-85
2023/01/17 07:43:51;;;;;;;5.70;3.63;;;;;;;;;;5072716;28;20459;-85
2023/01/17 07:46:17;;;;;;;5.00;4.22;;;;;;;;;;5047668;28;20517;-86
2023/01/17 07:48:43;;;;;;;5.27;4.80;;;;;;;;;;5067282;28;20384;-86
2023/01/17 07:51:09;;;;;;;7.07;5.47;;;;;;;;;;5063797;28;20382;-84
2023/01/17 07:53:36;;;;;;;5.90;5.40;;;;;;;;;;5072603;28;20391;-86
2023/01/17 07:56:03;;;;;;;5.38;4.88;;;;;;;;;;5053753;28;20398;-87
2023/01/17 07:58:29;;;;;;;4.47;4.07;;;;;;;;;;5073123;28;20428;-87
2023/01/17 08:01:00;;;;;;;4.57;4.00;;;;;;;;;;5072728;28;20384;-86
2023/01/17 08:03:30;;;;;;;4.50;3.90;;;;;;;;;;5072692;28;20424;-88
2023/01/17 08:05:57;;;;;;;4.93;4.50;;;;;;;;;;5063695;28;20404;-87
2023/01/17 08:08:23;;;;;;;5.43;4.88;;;;;;;;;;5072564;28;20462;-86
2023/01/17 08:10:50;;;;;;;4.57;4.17;;;;;;;;;;5054534;28;20407;-86
2023/01/17 08:13:16;;;;;;;4.75;3.25;;;;;;;;;;5072704;28;20421;-85
2023/01/17 08:15:42;;;;;;;3.78;3.20;;;;;;;;;;5072660;28;20472;-86
2023/01/17 08:18:08;;;;;;;4.55;3.20;;;;;;;;;;5087784;28;20415;-85
2023/01/17 08:20:34;;;;;;;3.28;2.97;;;;;;;;;;5071842;28;20376;-84
2023/01/17 08:23:00;;;;;;;4.38;3.45;;;;;;;;;;5072297;28;20387;-84
2023/01/17 08:25:26;;;;;;;4.80;3.53;;;;;;;;;;5072423;28;20965;-85
2023/01/17 08:27:55;;;;;;;5.13;4.07;;;;;;;;;;5072488;28;20372;-84
2023/01/17 08:30:21;;;;;;;6.40;4.28;;;;;;;;;;5071185;28;20463;-85
2023/01/17 08:32:47;;;;;;;4.40;4.00;;;;;;;;;;5072369;28;21003;-82
2023/01/17 08:35:13;;;;;;;4.45;3.83;;;;;;;;;;5072509;28;20453;-82
2023/01/17 08:37:39;;;;;;;4.70;4.25;;;;;;;;;;5070851;28;20885;-82
2023/01/17 08:40:06;;;;;;;5.38;4.32;;;;;;;;;;5073829;28;20474;-83
2023/01/17 08:42:38;;;;;;;5.18;4.68;;;;;;;;;;5053602;28;21199;-84
2023/01/17 08:45:07;;;;;;;6.55;5.95;;;;;;;;;;5071425;28;20404;-83
2023/01/17 08:47:34;;;;;;;6.90;6.30;;;;;;;;;;5071433;28;20427;-83
2023/01/17 08:50:00;;;;;;;6.90;6.28;;;;;;;;;;5071375;28;20426;-83
2023/01/17 08:52:27;;;;;;;6.32;5.72;;;;;;;;;;5071290;28;20372;-82
2023/01/17 08:54:53;;;;;;;7.53;6.82;;;;;;;;;;5072112;28;20382;-83
2023/01/17 08:57:22;;;;;;;8.70;7.90;;;;;;;;;;5072053;28;20422;-83
2023/01/17 08:59:48;;;;;;;8.07;7.38;;;;;;;;;;5071873;28;20376;-83
2023/01/17 09:02:15;;;;;;;7.25;6.55;;;;;;;;;;5071991;28;20379;-83
2023/01/17 09:04:44;;;;;;;6.78;6.18;;;;;;;;;;5064676;28;20407;-84
2023/01/17 09:07:10;;;;;;;5.05;4.65;;;;;;;;;;5049601;28;20460;-84
2023/01/17 09:09:36;;;;;;;6.32;4.78;;;;;;;;;;5052819;28;20389;-82
2023/01/17 09:12:02;;;;;;;5.50;5.00;;;;;;;;;;5063242;28;20407;-83
2023/01/17 09:14:28;;;;;;;5.85;5.35;;;;;;;;;;5071817;28;20865;-82
2023/01/17 09:16:54;;;;;;;6.28;5.68;;;;;;;;;;5064576;28;20394;-83
2023/01/17 09:19:20;;;;;;;6.22;5.65;;;;;;;;;;5040418;28;20420;-82
2023/01/17 09:21:46;;;;;;;7.57;6.87;;;;;;;;;;5070044;28;20418;-82
2023/01/17 09:24:12;;;;;;;10.73;9.63;;;;;;;;;;5071648;28;20379;-83
2023/01/17 09:26:38;;;;;;;8.27;7.47;;;;;;;;;;5071623;28;20853;-82
2023/01/17 09:29:04;;;;;;;7.43;6.70;;;;;;;;;;5071193;28;20394;-84
2023/01/17 09:31:31;;;;;;;6.60;5.88;;;;;;;;;;5065769;28;20429;-83
2023/01/17 09:33:57;;;;;;;7.38;6.80;;;;;;;;;;5070227;28;20857;-83
2023/01/17 09:36:25;;;;;;;5.85;5.25;;;;;;;;;;5071362;28;20387;-82
2023/01/17 09:38:56;;;;;;;6.30;5.80;;;;;;;;;;5068795;28;20436;-85
2023/01/17 09:41:26;;;;;;;6.72;6.18;;;;;;;;;;5065786;28;20427;-85
2023/01/17 09:44:07;;;;;;;6.60;6.10;;;;;;;;;;5071465;28;20924;-85
2023/01/17 09:46:38;;;;;;;6.10;5.50;;;;;;;;;;5071440;28;20398;-85
2023/01/17 09:49:19;;;;;;;5.85;5.28;;;;;;;;;;5068143;28;20724;-86
2023/01/17 09:51:45;;;;;;;6.18;5.57;;;;;;;;;;5053162;28;20783;-85
2023/01/17 09:54:38;;;;;;;6.35;5.75;;;;;;;;;;5071400;28;20425;-85
2023/01/17 09:57:12;;;;;;;7.50;6.82;;;;;;;;;;5067115;28;20745;-85
2023/01/17 09:59:38;;;;;;;6.07;5.50;;;;;;;;;;5066274;28;20522;-85
2023/01/17 10:02:04;;;;;;;6.43;5.80;;;;;;;;;;5064507;28;20465;-86
2023/01/17 10:04:51;;;;;;;7.13;6.53;;;;;;;;;;5056523;28;20485;-85
2023/01/17 10:07:32;;;;;;;6.95;6.35;;;;;;;;;;5065988;28;20454;-85
2023/01/17 10:10:01;;;;;;;7.97;7.38;;;;;;;;;;5070951;28;20480;-85
2023/01/17 10:12:46;;;;;;;6.93;6.28;;;;;;;;;;5071060;28;20428;-82
2023/01/17 10:15:15;;;;;;;6.25;5.65;;;;;;;;;;5071292;28;20886;-85
2023/01/17 10:17:52;;;;;;;5.50;5.00;;;;;;;;;;5053072;28;20428;-85
2023/01/17 10:20:18;;;;;;;7.03;5.15;;;;;;;;;;5071125;28;20486;-85
2023/01/17 10:23:03;;;;;;;6.57;6.00;;;;;;;;;;5070990;28;20384;-86
2023/01/17 10:25:32;;;;;;;5.60;5.00;;;;;;;;;;5073664;28;20458;-85
2023/01/17 10:27:59;;;;;;;5.60;5.10;;;;;;;;;;5073694;28;20414;-85
2023/01/17 10:30:50;;;;;;;6.05;4.90;;;;;;;;;;5070988;28;20452;-85
2023/01/17 10:33:21;;;;;;;5.63;5.13;;;;;;;;;;5053063;28;20452;-85
2023/01/17 10:36:06;;;;;;;6.13;5.40;;;;;;;;;;5053059;28;20439;-87
2023/01/17 10:38:37;;;;;;;7.97;5.68;;;;;;;;;;5066200;28;20451;-86
2023/01/17 10:41:22;;;;;;;6.00;5.25;;;;;;;;;;5065094;28;20420;-86
2023/01/17 10:44:07;;;;;;;7.18;5.68;;;;;;;;;;5060724;28;20400;-85
2023/01/17 10:46:33;;;;;;;9.50;8.60;;;;;;;;;;5068578;28;20498;-85
2023/01/17 10:49:00;;;;;;;8.68;7.65;;;;;;;;;;5072958;28;20459;-85
2023/01/17 10:51:29;;;;;;;6.72;6.13;;;;;;;;;;5074306;28;20407;-83
2023/01/17 10:53:55;;;;;;;6.90;6.30;;;;;;;;;;5056568;28;20437;-85
2023/01/17 10:56:23;;;;;;;6.75;5.40;;;;;;;;;;5074433;28;20399;-86
2023/01/17 10:58:50;;;;;;;5.72;5.22;;;;;;;;;;5074220;28;20379;-85
2023/01/17 11:01:19;;;;;;;4.90;4.50;;;;;;;;;;5074238;28;20440;-85
2023/01/17 11:03:54;;;;;;;5.38;4.50;;;;;;;;;;5074222;28;20384;-85
2023/01/17 11:06:20;;;;;;;4.30;3.90;;;;;;;;;;5069266;28;20458;-85
2023/01/17 11:08:50;;;;;;;4.03;3.63;;;;;;;;;;5068756;28;20390;-86
2023/01/17 11:11:16;;;;;;;5.03;4.55;;;;;;;;;;5066030;28;20475;-85
2023/01/17 11:13:44;;;;;;;4.18;3.88;;;;;;;;;;5067070;28;20386;-85
2023/01/17 11:16:16;;;;;;;3.60;3.20;;;;;;;;;;5070301;28;20917;-83
2023/01/17 11:18:42;;;;;;;4.63;3.65;;;;;;;;;;5071470;28;20538;-82
2023/01/17 11:21:20;;;;;;;5.28;4.78;;;;;;;;;;5064220;28;20451;-83
2023/01/17 11:23:48;;;;;;;6.13;5.67;;;;;;;;;;5067889;28;20440;-85
2023/01/17 11:26:23;;;;;;;9.65;8.95;;;;;;;;;;5070769;28;20874;-85
2023/01/17 11:28:51;;;;;;;5.00;4.60;;;;;;;;;;5061749;28;20444;-85
2023/01/17 11:31:17;;;;;;;6.25;5.63;;;;;;;;;;5066848;28;20412;-85
2023/01/17 11:33:44;;;;;;;4.93;4.43;;;;;;;;;;5073608;28;20429;-85
2023/01/17 11:36:19;;;;;;;5.32;4.82;;;;;;;;;;5068749;28;20432;-85
2023/01/17 11:39:04;;;;;;;6.65;6.10;;;;;;;;;;5068750;28;21100;-84
2023/01/17 11:41:34;;;;;;;7.40;6.85;;;;;;;;;;5067267;28;20430;-85
2023/01/17 11:44:01;;;;;;;7.80;7.20;;;;;;;;;;5076554;28;20435;-85
2023/01/17 11:46:28;;;;;;;7.83;7.23;;;;;;;;;;5073350;28;20451;-85
2023/01/17 11:48:58;;;;;;;8.60;8.00;;;;;;;;;;5071831;28;21089;-87
2023/01/17 11:51:27;;;;;;;12.00;10.80;;;;;;;;;;5073675;28;20430;-82
2023/01/17 11:53:54;;;;;;;11.52;10.48;;;;;;;;;;5075841;28;20424;-80
2023/01/17 11:56:21;;;;;;;9.60;8.90;;;;;;;;;;5073242;28;20408;-80
2023/01/17 11:58:47;;;;;;;9.02;8.32;;;;;;;;;;5073052;28;20383;-80
2023/01/17 12:01:31;;;;;;;8.65;7.95;;;;;;;;;;5067350;28;20446;-80
2023/01/17 12:04:06;;;;;;;7.90;7.13;;;;;;;;;;5073042;28;20382;-80
2023/01/17 12:06:48;;;;;;;7.95;7.25;;;;;;;;;;5066095;28;20533;-80
2023/01/17 12:09:14;;;;;;;8.90;8.10;;;;;;;;;;5065704;28;20427;-80
2023/01/17 12:13:59;;;;;;;6.80;6.20;;;;;;;;;;5054956;28;20408;-80
2023/01/17 12:14:32;;;;;;;6.10;5.47;;;;;;;;;;5053411;28;20363;-80
2023/01/17 12:16:58;;;;;;;5.47;5.07;;;;;;;;;;5057363;28;20481;-80
2023/01/17 12:19:41;;;;;;;5.10;4.70;;;;;;;;;;5066095;28;20437;-80
2023/01/17 12:22:27;;;;;;;5.25;4.85;;;;;;;;;;5056199;28;20393;-80
2023/01/17 12:25:02;;;;;;;4.35;4.00;;;;;;;;;;5071766;28;20489;-80
2023/01/17 12:27:34;;;;;;;4.68;3.83;;;;;;;;;;5063669;28;20850;-80
2023/01/17 12:30:14;;;;;;;3.80;3.42;;;;;;;;;;5058453;28;20375;-80
2023/01/17 12:32:50;;;;;;;3.92;3.45;;;;;;;;;;5061450;28;20425;-80
2023/01/17 12:35:18;;;;;;;4.10;3.70;;;;;;;;;;5069763;28;20375;-80
2023/01/17 12:37:45;;;;;;;3.75;3.38;;;;;;;;;;5076007;28;20443;-80
2023/01/17 12:40:14;;;;;;;6.85;4.93;;;;;;;;;;5059340;28;20395;-80
2023/01/17 12:42:43;;;;;;;4.30;3.30;;;;;;;;;;5078557;28;20391;-80
2023/01/17 12:45:11;;;;;;;3.50;3.20;;;;;;;;;;5069941;28;20512;-80
2023/01/17 12:47:39;;;;;;;2.65;2.42;;;;;;;;;;5075910;28;20448;-80
2023/01/17 12:50:26;;;;;;;3.25;3.00;;;;;;;;;;5084726;28;20422;-81
2023/01/17 12:52:57;;;;;;;2.53;2.20;;;;;;;;;;5060048;28;20860;-81
2023/01/17 12:55:34;;;;;;;3.97;2.97;;;;;;;;;;5071828;28;20427;-80
2023/01/17 12:58:01;;;;;;;2.60;2.40;;;;;;;;;;5066672;28;20419;-81
2023/01/17 13:00:29;;;;;;;3.30;2.73;;;;;;;;;;5069858;28;20398;-81
2023/01/17 13:03:11;;;;;;;3.40;3.10;;;;;;;;;;5071033;28;20388;-80
2023/01/17 13:05:43;;;;;;;3.03;2.38;;;;;;;;;;5070463;28;20415;-80
2023/01/17 13:08:09;;;;;;;4.47;3.00;;;;;;;;;;5070494;28;20410;-80
2023/01/17 13:10:35;;;;;;;4.38;3.50;;;;;;;;;;5071224;28;20443;-81
2023/01/17 13:13:04;;;;;;;2.53;2.30;;;;;;;;;;5071806;28;20384;-81
2023/01/17 13:15:36;;;;;;;2.30;2.10;;;;;;;;;;5077670;28;20402;-80
2023/01/17 13:18:02;;;;;;;5.78;5.18;;;;;;;;;;5072210;28;20436;-80
2023/01/17 13:20:30;;;;;;;2.80;1.90;;;;;;;;;;5074787;28;20382;-80
2023/01/17 13:23:00;;;;;;;2.65;2.30;;;;;;;;;;5072232;28;20780;-80
2023/01/17 13:25:44;;;;;;;2.38;2.17;;;;;;;;;;5054046;28;20758;-80
2023/01/17 13:28:13;;;;;;;4.07;3.47;;;;;;;;;;5071489;28;20490;-80
2023/01/17 13:31:03;;;;;;;2.33;1.90;;;;;;;;;;5074086;28;20406;-80
2023/01/17 13:33:41;;;;;;;2.67;2.03;;;;;;;;;;5071640;28;20507;-80
2023/01/17 13:36:30;;;;;;;3.28;2.50;;;;;;;;;;5071818;28;20392;-80
2023/01/17 13:39:01;;;;;;;2.58;2.20;;;;;;;;;;5070440;28;20498;-80
2023/01/17 13:41:30;;;;;;;3.80;2.63;;;;;;;;;;5069312;28;20530;-80
2023/01/17 13:47:03;;;;;;;3.90;2.88;;;;;;;;;;5064833;28;20457;-80
2023/01/17 13:49:35;;;;;;;3.13;2.83;;;;;;;;;;5069589;28;20383;-80
2023/01/17 13:52:11;;;;;;;3.78;3.22;;;;;;;;;;5071027;28;20364;-80
2023/01/17 13:54:44;;;;;;;8.85;7.05;;;;;;;;;;5068687;28;20773;-80
2023/01/17 13:57:25;;;;;;;2.63;2.40;;;;;;;;;;5069573;28;20462;-80
2023/01/17 13:59:52;;;;;;;3.35;2.20;;;;;;;;;;5067862;28;20447;-80
2023/01/17 14:02:34;;;;;;;3.67;2.05;;;;;;;;;;5068040;28;20471;-80
2023/01/17 14:05:14;;;;;;;2.28;2.08;;;;;;;;;;5053064;28;21252;-80
2023/01/17 14:08:00;;;;;;;2.58;1.90;;;;;;;;;;5054703;28;20525;-81
2023/01/17 14:10:29;;;;;;;2.42;1.95;;;;;;;;;;5051800;28;20921;-81
2023/01/17 14:12:55;;;;;;;2.53;1.90;;;;;;;;;;5056990;28;20433;-80
2023/01/17 14:15:24;;;;;;;2.78;2.38;;;;;;;;;;5071150;28;20789;-80
2023/01/17 14:17:50;;;;;;;2.50;2.30;;;;;;;;;;5070067;28;20395;-80
2023/01/17 14:20:16;;;;;;;3.90;3.60;;;;;;;;;;5058775;28;20417;-80
2023/01/17 14:22:53;;;;;;;3.33;2.70;;;;;;;;;;5066634;28;20457;-80
2023/01/17 14:25:21;;;;;;;2.80;2.60;;;;;;;;;;5061681;28;20601;-80
2023/01/17 14:27:50;;;;;;;3.33;3.03;;;;;;;;;;5066219;28;20432;-80
2023/01/17 14:30:16;;;;;;;4.88;3.83;;;;;;;;;;5061217;28;20428;-80
2023/01/17 14:33:00;;;;;;;6.57;4.85;;;;;;;;;;5078488;28;20458;-80
2023/01/17 14:35:33;;;;;;;6.88;5.00;;;;;;;;;;5064133;28;20762;-80
2023/01/17 14:38:04;;;;;;;5.80;5.20;;;;;;;;;;5073761;28;20456;-80
2023/01/17 14:40:35;;;;;;;4.10;3.60;;;;;;;;;;5059502;28;20543;-80
2023/01/17 14:43:02;;;;;;;94.10;37.45;;;;;;;;;;5074606;28;20429;-80
2023/01/17 14:45:30;;;;;;;4.55;3.65;;;;;;;;;;5074427;28;20473;-80
2023/01/17 14:47:57;;;;;;;87.45;47.20;;;;;;;;;;5073710;28;20380;-80
2023/01/17 14:50:28;;;;;;;2.33;1.42;;;;;;;;;;5073855;28;20369;-80
2023/01/17 14:53:08;;;;;;;2.60;2.35;;;;;;;;;;5074265;28;20443;-81
2023/01/17 14:55:34;;;;;;;10.00;5.32;;;;;;;;;;5072770;28;20436;-81
2023/01/17 14:58:00;;;;;;;13.27;11.90;;;;;;;;;;5075076;28;20376;-81
2023/01/17 15:00:32;;;;;;;30.05;26.77;;;;;;;;;;5074219;28;20379;-81
2023/01/17 15:03:00;;;;;;;3.33;2.28;;;;;;;;;;5073796;28;20384;-80
2023/01/17 15:05:30;;;;;;;2.97;2.20;;;;;;;;;;5063163;28;20500;-81
2023/01/17 15:07:57;;;;;;;2.60;1.80;;;;;;;;;;5060181;28;20510;-81
2023/01/17 15:10:24;;;;;;;2.25;1.50;;;;;;;;;;5073760;28;20490;-81
2023/01/17 15:12:51;;;;;;;3.30;2.10;;;;;;;;;;5073290;28;20856;-81
2023/01/17 15:15:46;;;;;;;11.85;10.18;;;;;;;;;;5074073;28;20946;-81
2023/01/17 15:18:24;;;;;;;2.85;1.75;;;;;;;;;;5043893;28;20436;-81
2023/01/17 15:20:52;;;;;;;3.07;1.90;;;;;;;;;;5074004;28;20509;-81
2023/01/17 15:23:20;;;;;;;2.88;2.63;;;;;;;;;;5073824;28;20468;-81
2023/01/17 15:25:49;;;;;;;5.47;3.22;;;;;;;;;;5073923;28;20486;-83
2023/01/17 15:28:15;;;;;;;3.15;2.22;;;;;;;;;;5073829;28;20522;-82
2023/01/17 15:31:02;;;;;;;6.13;3.10;;;;;;;;;;5073285;28;20371;-83
2023/01/17 15:33:30;;;;;;;2.70;1.60;;;;;;;;;;5057118;28;21006;-82
2023/01/17 15:36:03;;;;;;;3.35;2.22;;;;;;;;;;5070481;28;20394;-83
2023/01/17 15:38:31;;;;;;;2.63;2.20;;;;;;;;;;5073521;28;20436;-83
2023/01/17 15:41:05;;;;;;;2.20;1.70;;;;;;;;;;5073618;28;20376;-82
2023/01/17 15:43:34;;;;;;;3.88;2.35;;;;;;;;;;5073513;28;20498;-82
2023/01/17 15:46:01;;;;;;;4.63;2.45;;;;;;;;;;5073526;28;20531;-83
2023/01/17 15:48:43;;;;;;;2.78;1.77;;;;;;;;;;5073475;28;20387;-82
2023/01/17 15:51:11;;;;;;;3.47;2.13;;;;;;;;;;5073342;28;20376;-83
2023/01/17 15:53:38;;;;;;;2.00;1.80;;;;;;;;;;5073246;28;20383;-83
2023/01/17 15:56:23;;;;;;;2.72;1.90;;;;;;;;;;5073417;28;20383;-83
2023/01/17 15:58:49;;;;;;;2.33;2.03;;;;;;;;;;5073207;28;20486;-83
2023/01/17 16:01:16;;;;;;;3.33;2.20;;;;;;;;;;5069997;28;20860;-83
2023/01/17 16:04:02;;;;;;;2.72;2.03;;;;;;;;;;5073270;28;20383;-83
2023/01/17 16:06:44;;;;;;;2.53;2.10;;;;;;;;;;5064103;28;20437;-83
2023/01/17 16:09:22;;;;;;;2.50;2.30;;;;;;;;;;5072929;28;20448;-83
2023/01/17 16:11:49;;;;;;;2.72;2.17;;;;;;;;;;5072738;28;20456;-83
2023/01/17 16:14:16;;;;;;;2.92;2.30;;;;;;;;;;5072800;28;20461;-83
2023/01/17 16:16:49;;;;;;;2.90;2.30;;;;;;;;;;5072905;28;20879;-83
2023/01/17 16:19:15;;;;;;;2.47;2.17;;;;;;;;;;5072773;28;20428;-83